createdAt,value
2018-09-29T00:01:14.143Z,11.80
2018-09-29T00:03:42.614Z,11.80
2018-09-29T00:06:11.080Z,11.90
2018-09-29T00:08:39.550Z,12.00
2018-09-29T00:11:08.027Z,12.20
2018-09-29T00:13:36.478Z,12.20
2018-09-29T00:16:04.943Z,12.20
2018-09-29T00:18:33.471Z,12.10
2018-09-29T00:21:01.931Z,12.00
2018-09-29T00:23:30.450Z,12.00
2018-09-29T00:25:58.918Z,12.00
2018-09-29T00:28:27.363Z,11.90
2018-09-29T00:30:55.831Z,11.90
2018-09-29T00:33:24.298Z,11.90
2018-09-29T00:35:52.773Z,11.90
2018-09-29T00:38:21.238Z,11.90
2018-09-29T00:40:49.694Z,11.90
2018-09-29T00:43:18.146Z,11.90
2018-09-29T00:45:46.656Z,11.90
2018-09-29T00:48:15.120Z,11.90
2018-09-29T00:50:43.616Z,11.90
2018-09-29T00:53:12.095Z,11.90
2018-09-29T00:55:40.550Z,11.90
2018-09-29T00:58:08.991Z,11.90
2018-09-29T01:00:37.606Z,11.90
2018-09-29T01:03:06.162Z,11.80
2018-09-29T01:05:34.627Z,11.80
2018-09-29T01:08:03.098Z,11.70
2018-09-29T01:10:34.580Z,11.70
2018-09-29T01:13:03.049Z,11.60
2018-09-29T01:15:31.541Z,11.60
2018-09-29T01:18:00.086Z,11.50
2018-09-29T01:20:28.546Z,11.50
2018-09-29T01:22:57.014Z,11.40
2018-09-29T01:25:25.490Z,11.40
2018-09-29T01:27:53.938Z,11.40
2018-09-29T01:30:22.388Z,11.40
2018-09-29T01:32:50.850Z,11.40
2018-09-29T01:35:19.318Z,11.40
2018-09-29T01:37:47.781Z,11.40
2018-09-29T01:40:16.254Z,11.40
2018-09-29T01:42:44.720Z,11.40
2018-09-29T01:45:13.224Z,11.50
2018-09-29T01:47:41.670Z,11.50
2018-09-29T01:50:10.134Z,11.50
2018-09-29T01:52:38.582Z,11.50
2018-09-29T01:55:07.118Z,11.50
2018-09-29T01:57:35.591Z,11.50
2018-09-29T02:00:04.102Z,11.50
2018-09-29T02:02:32.651Z,11.50
2018-09-29T02:05:01.122Z,11.60
2018-09-29T02:07:29.600Z,11.60
2018-09-29T02:09:58.062Z,11.60
2018-09-29T02:12:26.538Z,11.60
2018-09-29T02:14:54.999Z,11.60
2018-09-29T02:17:23.468Z,11.60
2018-09-29T02:19:51.963Z,11.60
2018-09-29T02:22:20.422Z,11.60
2018-09-29T02:24:48.986Z,11.60
2018-09-29T02:27:17.458Z,11.60
2018-09-29T02:29:45.929Z,11.60
2018-09-29T02:32:14.382Z,11.50
2018-09-29T02:37:17.594Z,11.50
2018-09-29T02:39:46.071Z,11.40
2018-09-29T02:42:14.534Z,11.50
2018-09-29T02:44:43.005Z,11.40
2018-09-29T02:47:11.475Z,11.40
2018-09-29T02:49:39.943Z,11.40
2018-09-29T02:52:08.415Z,11.30
2018-09-29T02:54:36.910Z,11.30
2018-09-29T02:57:05.367Z,11.30
2018-09-29T02:59:33.835Z,11.30
2018-09-29T03:02:02.292Z,11.30
2018-09-29T03:04:30.725Z,11.30
2018-09-29T03:06:59.272Z,11.30
2018-09-29T03:09:27.748Z,11.30
2018-09-29T03:11:56.212Z,11.30
2018-09-29T03:14:24.663Z,11.30
2018-09-29T03:16:53.115Z,11.30
2018-09-29T03:19:21.677Z,11.30
2018-09-29T03:21:50.068Z,11.40
2018-09-29T03:24:18.539Z,11.40
2018-09-29T03:26:47.015Z,11.40
2018-09-29T03:29:15.492Z,11.40
2018-09-29T03:31:53.628Z,11.40
2018-09-29T03:34:22.201Z,11.40
2018-09-29T03:36:50.660Z,11.50
2018-09-29T03:39:19.118Z,11.50
2018-09-29T03:41:47.567Z,11.50
2018-09-29T03:44:16.035Z,11.50
2018-09-29T03:46:44.499Z,11.60
2018-09-29T03:49:12.939Z,11.60
2018-09-29T03:51:41.409Z,11.60
2018-09-29T03:54:09.867Z,11.60
2018-09-29T03:56:38.326Z,11.70
2018-09-29T03:59:06.858Z,11.70
2018-09-29T04:01:35.312Z,11.80
2018-09-29T04:04:03.774Z,11.80
2018-09-29T04:06:32.291Z,11.80
2018-09-29T04:09:00.763Z,11.80
2018-09-29T04:11:29.239Z,11.80
2018-09-29T04:13:57.765Z,11.80
2018-09-29T04:16:26.166Z,11.80
2018-09-29T04:18:54.651Z,11.70
2018-09-29T04:21:23.115Z,11.60
2018-09-29T04:23:51.567Z,11.50
2018-09-29T04:26:20.022Z,11.50
2018-09-29T04:28:48.476Z,11.40
2018-09-29T04:31:16.939Z,11.40
2018-09-29T04:33:45.396Z,11.30
2018-09-29T04:36:13.866Z,11.30
2018-09-29T04:38:42.343Z,11.30
2018-09-29T04:41:10.812Z,11.30
2018-09-29T04:43:39.372Z,11.20
2018-09-29T04:46:07.843Z,11.20
2018-09-29T04:48:36.299Z,11.20
2018-09-29T04:51:04.778Z,11.20
2018-09-29T04:53:33.406Z,11.20
2018-09-29T04:56:01.863Z,11.20
2018-09-29T04:58:30.311Z,11.30
2018-09-29T05:00:58.793Z,11.20
2018-09-29T05:03:27.245Z,11.30
2018-09-29T05:05:55.710Z,11.20
2018-09-29T05:08:24.163Z,11.20
2018-09-29T05:10:52.614Z,11.20
2018-09-29T05:13:21.086Z,11.20
2018-09-29T05:15:49.556Z,11.20
2018-09-29T05:18:18.010Z,11.20
2018-09-29T05:20:46.470Z,11.20
2018-09-29T05:23:15.051Z,11.20
2018-09-29T05:25:43.406Z,11.30
2018-09-29T05:28:11.970Z,11.30
2018-09-29T05:30:40.429Z,11.40
2018-09-29T05:33:08.877Z,11.40
2018-09-29T05:35:37.339Z,11.40
2018-09-29T05:38:05.794Z,11.40
2018-09-29T05:40:34.250Z,11.40
2018-09-29T05:43:02.706Z,11.50
2018-09-29T05:45:31.214Z,11.50
2018-09-29T05:47:59.694Z,11.50
2018-09-29T05:50:28.139Z,11.50
2018-09-29T05:52:56.602Z,11.50
2018-09-29T05:55:25.095Z,11.60
2018-09-29T05:57:53.580Z,11.60
2018-09-29T06:00:22.100Z,11.70
2018-09-29T06:02:50.532Z,11.70
2018-09-29T06:05:19.066Z,11.90
2018-09-29T06:07:47.473Z,11.90
2018-09-29T06:10:16.218Z,11.90
2018-09-29T06:12:44.691Z,12.00
2018-09-29T06:15:13.190Z,12.00
2018-09-29T06:17:41.695Z,12.20
2018-09-29T06:20:10.281Z,12.20
2018-09-29T06:22:38.751Z,12.30
2018-09-29T06:25:07.632Z,12.30
2018-09-29T06:27:36.102Z,12.40
2018-09-29T06:30:06.531Z,12.30
2018-09-29T06:32:34.992Z,12.30
2018-09-29T06:35:03.995Z,12.30
2018-09-29T06:37:32.495Z,12.20
2018-09-29T06:40:01.054Z,12.20
2018-09-29T06:42:29.538Z,12.30
2018-09-29T06:44:57.991Z,12.40
2018-09-29T06:47:27.063Z,12.40
2018-09-29T06:49:55.666Z,12.50
2018-09-29T06:52:24.146Z,12.70
2018-09-29T06:54:52.600Z,12.90
2018-09-29T06:57:21.065Z,13.00
2018-09-29T06:59:49.521Z,13.10
2018-09-29T07:02:17.971Z,13.30
2018-09-29T07:04:46.470Z,13.50
2018-09-29T07:07:14.958Z,13.60
2018-09-29T07:09:43.426Z,13.50
2018-09-29T07:12:11.877Z,13.50
2018-09-29T07:14:40.347Z,13.40
2018-09-29T07:17:08.840Z,13.40
2018-09-29T07:19:37.299Z,13.50
2018-09-29T07:22:05.807Z,13.50
2018-09-29T07:24:34.294Z,13.60
2018-09-29T07:27:02.766Z,13.40
2018-09-29T07:29:31.353Z,13.40
2018-09-29T07:31:59.876Z,13.40
2018-09-29T07:34:28.330Z,13.40
2018-09-29T07:36:56.774Z,13.50
2018-09-29T07:39:25.256Z,13.50
2018-09-29T07:41:53.731Z,13.50
2018-09-29T07:44:22.185Z,13.60
2018-09-29T07:46:50.648Z,13.60
2018-09-29T07:49:19.176Z,13.60
2018-09-29T07:51:47.587Z,13.50
2018-09-29T07:54:16.190Z,13.60
2018-09-29T07:56:44.690Z,13.70
2018-09-29T07:59:13.154Z,13.80
2018-09-29T08:01:41.634Z,13.90
2018-09-29T08:04:10.123Z,13.90
2018-09-29T08:06:38.588Z,13.80
2018-09-29T08:09:07.491Z,13.90
2018-09-29T08:11:36.038Z,13.80
2018-09-29T08:14:04.578Z,13.70
2018-09-29T08:16:33.066Z,13.50
2018-09-29T08:19:01.571Z,13.50
2018-09-29T08:21:30.043Z,13.70
2018-09-29T08:23:58.566Z,13.90
2018-09-29T08:26:27.118Z,14.10
2018-09-29T08:28:55.619Z,14.30
2018-09-29T08:31:24.102Z,14.60
2018-09-29T08:33:52.590Z,14.90
2018-09-29T08:36:21.057Z,15.10
2018-09-29T08:38:49.523Z,14.90
2018-09-29T08:41:17.989Z,15.00
2018-09-29T08:43:46.443Z,15.20
2018-09-29T08:46:14.907Z,15.20
2018-09-29T08:48:43.384Z,15.00
2018-09-29T08:51:12.488Z,15.10
2018-09-29T08:53:40.981Z,15.30
2018-09-29T08:56:09.474Z,15.10
2018-09-29T08:58:37.951Z,14.90
2018-09-29T09:01:06.711Z,14.80
2018-09-29T09:03:35.418Z,14.70
2018-09-29T09:06:03.922Z,14.70
2018-09-29T09:08:32.446Z,14.60
2018-09-29T09:11:00.925Z,14.60
2018-09-29T09:13:29.432Z,14.50
2018-09-29T09:15:57.899Z,14.70
2018-09-29T09:18:26.363Z,14.90
2018-09-29T09:20:54.825Z,15.00
2018-09-29T09:23:23.291Z,14.90
2018-09-29T09:25:51.839Z,15.10
2018-09-29T09:28:20.294Z,15.20
2018-09-29T09:30:48.751Z,15.40
2018-09-29T09:33:17.190Z,15.20
2018-09-29T09:35:45.643Z,15.20
2018-09-29T09:38:14.093Z,15.30
2018-09-29T09:40:42.583Z,15.30
2018-09-29T09:43:11.130Z,15.50
2018-09-29T09:45:39.586Z,15.30
2018-09-29T09:48:08.071Z,15.20
2018-09-29T09:50:36.535Z,15.10
2018-09-29T09:53:05.107Z,15.10
2018-09-29T09:55:33.675Z,15.00
2018-09-29T09:58:02.166Z,15.00
2018-09-29T10:00:35.871Z,14.90
2018-09-29T10:03:09.667Z,14.90
2018-09-29T10:05:38.131Z,14.80
2018-09-29T10:08:06.695Z,15.00
2018-09-29T10:10:35.190Z,15.40
2018-09-29T10:13:03.947Z,15.40
2018-09-29T10:15:32.467Z,15.50
2018-09-29T10:18:01.108Z,15.80
2018-09-29T10:20:29.631Z,16.10
2018-09-29T10:22:58.097Z,15.80
2018-09-29T10:25:26.548Z,16.00
2018-09-29T10:27:55.022Z,16.10
2018-09-29T10:30:24.023Z,16.00
2018-09-29T10:32:52.479Z,16.00
2018-09-29T10:35:20.950Z,16.00
2018-09-29T10:37:49.396Z,16.10
2018-09-29T10:40:17.866Z,16.20
2018-09-29T10:42:46.315Z,16.50
2018-09-29T10:45:14.815Z,16.70
2018-09-29T10:47:43.362Z,17.00
2018-09-29T10:50:11.870Z,17.30
2018-09-29T10:52:40.754Z,17.00
2018-09-29T10:55:09.415Z,17.20
2018-09-29T10:57:38.234Z,17.10
2018-09-29T11:00:06.754Z,17.20
2018-09-29T11:02:35.228Z,17.10
2018-09-29T11:05:04.480Z,16.80
2018-09-29T11:07:33.040Z,16.70
2018-09-29T11:10:01.512Z,16.70
2018-09-29T11:12:30.003Z,16.80
2018-09-29T11:14:58.511Z,16.90
2018-09-29T11:17:30.558Z,16.70
2018-09-29T11:19:59.972Z,16.60
2018-09-29T11:22:28.518Z,16.80
2018-09-29T11:24:57.015Z,16.70
2018-09-29T11:27:25.474Z,17.00
2018-09-29T11:29:53.922Z,16.70
2018-09-29T11:32:22.390Z,16.90
2018-09-29T11:34:50.850Z,16.90
2018-09-29T11:37:19.315Z,16.80
2018-09-29T11:39:47.791Z,16.80
2018-09-29T11:42:17.560Z,16.70
2018-09-29T11:44:46.099Z,16.60
2018-09-29T11:47:14.573Z,16.50
2018-09-29T11:49:43.085Z,16.40
2018-09-29T11:52:11.589Z,16.50
2018-09-29T11:54:40.142Z,16.60
2018-09-29T11:57:08.610Z,16.50
2018-09-29T11:59:37.091Z,16.70
2018-09-29T12:02:05.635Z,16.80
2018-09-29T12:04:34.082Z,16.90
2018-09-29T12:07:02.596Z,16.90
2018-09-29T12:09:31.111Z,17.00
2018-09-29T12:11:59.566Z,17.20
2018-09-29T12:14:28.247Z,17.20
2018-09-29T12:16:56.720Z,17.10
2018-09-29T12:19:25.417Z,17.00
2018-09-29T12:21:53.887Z,17.20
2018-09-29T12:24:22.363Z,17.00
2018-09-29T12:26:50.898Z,16.90
2018-09-29T12:29:19.452Z,16.80
2018-09-29T12:31:47.883Z,16.90
2018-09-29T12:34:16.343Z,16.80
2018-09-29T12:36:44.833Z,17.00
2018-09-29T12:39:13.269Z,17.10
2018-09-29T12:41:41.714Z,17.00
2018-09-29T12:44:10.163Z,17.10
2018-09-29T12:46:38.631Z,17.20
2018-09-29T12:49:07.106Z,17.00
2018-09-29T12:51:35.596Z,17.10
2018-09-29T12:54:04.031Z,17.10
2018-09-29T12:56:32.543Z,17.00
2018-09-29T12:59:01.088Z,17.00
2018-09-29T13:01:29.486Z,16.90
2018-09-29T13:03:57.963Z,17.00
2018-09-29T13:06:26.431Z,17.10
2018-09-29T13:08:54.899Z,17.00
2018-09-29T13:11:23.361Z,17.10
2018-09-29T13:13:51.827Z,17.20
2018-09-29T13:16:20.276Z,17.20
2018-09-29T13:18:48.733Z,16.80
2018-09-29T13:21:17.199Z,16.80
2018-09-29T13:23:45.651Z,16.80
2018-09-29T13:26:14.104Z,16.80
2018-09-29T13:28:44.007Z,16.90
2018-09-29T13:31:12.546Z,17.10
2018-09-29T13:33:40.996Z,17.10
2018-09-29T13:36:13.678Z,17.10
2018-09-29T13:38:42.143Z,17.00
2018-09-29T13:41:10.619Z,16.90
2018-09-29T13:43:39.178Z,17.00
2018-09-29T13:46:07.655Z,16.50
2018-09-29T13:48:36.257Z,16.40
2018-09-29T13:51:04.727Z,16.50
2018-09-29T13:53:33.543Z,16.70
2018-09-29T13:56:02.299Z,16.70
2018-09-29T13:58:30.771Z,16.80
2018-09-29T14:00:59.221Z,16.80
2018-09-29T14:03:27.679Z,16.80
2018-09-29T14:05:56.171Z,16.80
2018-09-29T14:08:24.679Z,16.80
2018-09-29T14:10:53.266Z,16.80
2018-09-29T14:13:21.759Z,16.60
2018-09-29T14:15:50.248Z,16.60
2018-09-29T14:18:18.707Z,16.50
2018-09-29T14:20:47.171Z,16.40
2018-09-29T14:23:15.643Z,16.30
2018-09-29T14:25:44.105Z,16.10
2018-09-29T14:28:12.565Z,16.10
2018-09-29T14:30:41.304Z,16.10
2018-09-29T14:33:10.438Z,15.90
2018-09-29T14:35:39.214Z,15.80
2018-09-29T14:38:07.671Z,15.80
2018-09-29T14:40:36.134Z,15.70
2018-09-29T14:43:04.586Z,15.60
2018-09-29T14:45:33.179Z,15.60
2018-09-29T14:48:01.634Z,15.60
2018-09-29T14:50:30.104Z,15.50
2018-09-29T14:52:58.587Z,15.50
2018-09-29T14:55:27.041Z,15.30
2018-09-29T14:57:55.612Z,15.30
2018-09-29T15:00:24.226Z,15.30
2018-09-29T15:02:52.690Z,15.20
2018-09-29T15:05:21.166Z,15.10
2018-09-29T15:07:49.623Z,15.20
2018-09-29T15:10:18.174Z,15.20
2018-09-29T15:12:49.823Z,15.20
2018-09-29T15:15:18.282Z,15.20
2018-09-29T15:17:46.739Z,15.10
2018-09-29T15:20:15.267Z,15.20
2018-09-29T15:22:43.696Z,15.10
2018-09-29T15:25:12.418Z,15.10
2018-09-29T15:27:41.091Z,14.90
2018-09-29T15:30:09.698Z,14.80
2018-09-29T15:32:38.167Z,14.60
2018-09-29T15:35:06.672Z,14.40
2018-09-29T15:37:35.138Z,14.20
2018-09-29T15:40:03.917Z,14.00
2018-09-29T15:42:32.488Z,13.80
2018-09-29T15:45:01.020Z,13.70
2018-09-29T15:47:29.421Z,13.60
2018-09-29T15:49:57.883Z,13.60
2018-09-29T15:52:26.345Z,13.50
2018-09-29T15:54:54.801Z,13.40
2018-09-29T15:57:23.284Z,13.30
2018-09-29T15:59:51.730Z,13.30
2018-09-29T16:02:20.250Z,13.30
2018-09-29T16:04:48.662Z,13.20
2018-09-29T16:07:17.128Z,13.20
2018-09-29T16:09:45.590Z,13.10
2018-09-29T16:12:14.063Z,13.10
2018-09-29T16:14:42.562Z,13.00
2018-09-29T16:17:11.019Z,13.00
2018-09-29T16:19:39.495Z,12.90
2018-09-29T16:22:08.019Z,12.90
2018-09-29T16:24:36.470Z,12.90
2018-09-29T16:27:04.939Z,12.80
2018-09-29T16:29:33.419Z,12.80
2018-09-29T16:32:01.893Z,12.70
2018-09-29T16:34:30.416Z,12.60
2018-09-29T16:36:58.879Z,12.50
2018-09-29T16:39:27.336Z,12.40
2018-09-29T16:41:55.783Z,12.30
2018-09-29T16:44:24.242Z,12.20
2018-09-29T16:46:52.711Z,12.10
2018-09-29T16:49:21.172Z,12.00
2018-09-29T16:51:49.645Z,11.90
2018-09-29T16:54:18.190Z,11.90
2018-09-29T16:56:46.649Z,11.80
2018-09-29T16:59:15.116Z,11.90
2018-09-29T17:01:43.590Z,11.90
2018-09-29T17:04:12.116Z,11.90
2018-09-29T17:06:47.074Z,11.90
2018-09-29T17:09:15.554Z,11.90
2018-09-29T17:11:44.039Z,11.80
2018-09-29T17:14:12.497Z,11.80
2018-09-29T17:16:40.982Z,11.70
2018-09-29T17:19:09.449Z,11.60
2018-09-29T17:21:37.919Z,11.60
2018-09-29T17:24:06.434Z,11.50
2018-09-29T17:26:34.890Z,11.50
2018-09-29T17:29:03.382Z,11.50
2018-09-29T17:31:31.894Z,11.40
2018-09-29T17:34:00.345Z,11.40
2018-09-29T17:36:28.826Z,11.40
2018-09-29T17:38:57.290Z,11.30
2018-09-29T17:41:25.756Z,11.10
2018-09-29T17:43:54.218Z,11.10
2018-09-29T17:46:22.686Z,11.10
2018-09-29T17:48:51.166Z,11.10
2018-09-29T17:51:19.623Z,11.20
2018-09-29T17:53:48.074Z,11.30
2018-09-29T17:56:16.560Z,11.30
2018-09-29T17:58:45.011Z,11.30
2018-09-29T18:01:13.495Z,11.30
2018-09-29T18:03:41.950Z,11.30
2018-09-29T18:06:10.394Z,11.30
2018-09-29T18:08:38.922Z,11.10
2018-09-29T18:11:07.546Z,11.00
2018-09-29T18:13:36.085Z,10.90
2018-09-29T18:16:04.522Z,10.80
2018-09-29T18:18:33.176Z,10.70
2018-09-29T18:21:01.632Z,10.50
2018-09-29T18:23:30.079Z,10.40
2018-09-29T18:25:58.546Z,10.20
2018-09-29T18:28:27.010Z,10.10
2018-09-29T18:30:55.481Z,10.00
2018-09-29T18:33:23.941Z,9.80
2018-09-29T18:35:52.599Z,9.60
2018-09-29T18:38:21.019Z,9.60
2018-09-29T18:40:49.491Z,9.50
2018-09-29T18:43:17.974Z,9.40
2018-09-29T18:45:46.435Z,9.20
2018-09-29T18:48:14.886Z,9.10
2018-09-29T18:50:43.367Z,9.00
2018-09-29T18:53:11.810Z,9.00
2018-09-29T18:55:40.269Z,8.90
2018-09-29T18:58:08.777Z,8.80
2018-09-29T19:00:37.242Z,8.80
2018-09-29T19:03:05.723Z,8.60
2018-09-29T19:05:34.178Z,8.50
2018-09-29T19:08:02.638Z,8.40
2018-09-29T19:10:31.152Z,8.20
2018-09-29T19:12:59.681Z,8.10
2018-09-29T19:15:28.062Z,8.10
2018-09-29T19:17:56.514Z,8.00
2018-09-29T19:20:25.024Z,7.90
2018-09-29T19:22:53.527Z,8.00
2018-09-29T19:25:22.003Z,8.10
2018-09-29T19:27:50.447Z,8.10
2018-09-29T19:30:19.432Z,7.90
2018-09-29T19:32:47.880Z,7.70
2018-09-29T19:35:16.334Z,7.60
2018-09-29T19:37:45.055Z,7.50
2018-09-29T19:40:13.555Z,7.40
2018-09-29T19:42:42.130Z,7.40
2018-09-29T19:45:10.621Z,7.30
2018-09-29T19:47:39.078Z,7.20
2018-09-29T19:50:07.585Z,7.20
2018-09-29T19:52:36.036Z,7.20
2018-09-29T19:55:05.113Z,7.10
2018-09-29T19:57:33.588Z,7.20
2018-09-29T20:00:02.039Z,7.10
2018-09-29T20:02:30.498Z,7.00
2018-09-29T20:04:58.947Z,6.90
2018-09-29T20:07:27.409Z,6.80
2018-09-29T20:09:55.891Z,6.80
2018-09-29T20:12:24.342Z,6.80
2018-09-29T20:14:52.862Z,6.80
2018-09-29T20:17:21.311Z,6.80
2018-09-29T20:19:49.762Z,6.70
2018-09-29T20:22:18.230Z,6.60
2018-09-29T20:24:46.666Z,6.50
2018-09-29T20:27:15.146Z,6.30
2018-09-29T20:29:43.609Z,6.40
2018-09-29T20:32:12.103Z,6.30
2018-09-29T20:34:40.581Z,6.30
2018-09-29T20:37:09.058Z,6.30
2018-09-29T20:39:37.520Z,6.30
2018-09-29T20:42:06.837Z,6.30
2018-09-29T20:44:35.303Z,6.30
2018-09-29T20:47:03.827Z,6.20
2018-09-29T20:49:32.364Z,6.00
2018-09-29T20:52:00.798Z,5.80
2018-09-29T20:54:29.242Z,5.90
2018-09-29T20:56:57.783Z,5.90
2018-09-29T20:59:26.254Z,5.80
2018-09-29T21:01:54.709Z,5.80
2018-09-29T21:04:23.453Z,5.80
2018-09-29T21:06:51.906Z,5.90
2018-09-29T21:09:20.351Z,5.70
2018-09-29T21:11:48.844Z,5.50
2018-09-29T21:14:17.303Z,5.50
2018-09-29T21:16:45.787Z,5.50
2018-09-29T21:19:14.232Z,5.50
2018-09-29T21:21:42.707Z,5.50
2018-09-29T21:24:11.178Z,5.50
2018-09-29T21:26:39.638Z,5.40
2018-09-29T21:29:08.126Z,5.40
2018-09-29T21:31:36.587Z,5.20
2018-09-29T21:34:05.151Z,5.10
2018-09-29T21:36:33.651Z,5.10
2018-09-29T21:39:02.146Z,5.00
2018-09-29T21:41:30.649Z,5.10
2018-09-29T21:43:59.083Z,5.00
2018-09-29T21:46:27.542Z,5.10
2018-09-29T21:48:55.999Z,4.90
2018-09-29T21:51:24.459Z,4.90
2018-09-29T21:53:52.935Z,4.90
2018-09-29T21:56:21.410Z,4.90
2018-09-29T21:58:49.866Z,5.00
2018-09-29T22:01:34.919Z,5.00
2018-09-29T22:04:03.842Z,4.90
2018-09-29T22:06:32.363Z,4.70
2018-09-29T22:09:00.914Z,4.60
2018-09-29T22:11:29.384Z,4.60
2018-09-29T22:13:57.850Z,4.60
2018-09-29T22:16:26.302Z,4.50
2018-09-29T22:18:54.771Z,4.60
2018-09-29T22:21:23.235Z,4.60
2018-09-29T22:23:51.714Z,4.50
2018-09-29T22:26:20.176Z,4.40
2018-09-29T22:28:48.670Z,4.60
2018-09-29T22:31:17.149Z,4.60
2018-09-29T22:33:45.606Z,4.60
2018-09-29T22:36:14.102Z,4.60
2018-09-29T22:38:42.555Z,4.50
2018-09-29T22:41:11.022Z,4.40
2018-09-29T22:43:39.458Z,4.30
2018-09-29T22:46:07.930Z,4.30
2018-09-29T22:48:36.391Z,4.40
2018-09-29T22:51:04.859Z,4.40
2018-09-29T22:53:33.308Z,4.20
2018-09-29T22:56:01.777Z,4.20
2018-09-29T22:58:30.230Z,4.20
2018-09-29T23:00:58.678Z,4.10
2018-09-29T23:03:27.134Z,4.10
2018-09-29T23:05:55.610Z,4.10
2018-09-29T23:08:24.082Z,4.20
2018-09-29T23:10:52.530Z,4.10
2018-09-29T23:13:20.996Z,4.10
2018-09-29T23:15:49.467Z,4.00
2018-09-29T23:18:17.930Z,4.00
2018-09-29T23:20:46.408Z,4.00
2018-09-29T23:23:14.871Z,3.80
2018-09-29T23:25:43.338Z,3.90
2018-09-29T23:28:11.786Z,3.90
2018-09-29T23:30:40.246Z,3.90
2018-09-29T23:33:08.710Z,3.90
2018-09-29T23:35:37.159Z,3.90
2018-09-29T23:38:05.686Z,4.00
2018-09-29T23:40:34.131Z,4.00
2018-09-29T23:43:02.620Z,4.10
2018-09-29T23:45:31.139Z,4.00
2018-09-29T23:47:59.590Z,4.00
2018-09-29T23:50:28.047Z,4.00
2018-09-29T23:52:56.496Z,3.90
2018-09-29T23:55:24.938Z,3.90
2018-09-29T23:57:53.424Z,3.80
